| Date | Time | Temp. (oF) | Dew Point (oF) | Rel. Hum. (%) | Press. (in.) | Wind Dir. (deg.) | Wind Speed (mph) | Hourly Rainfall (i n.) |
|
|---|---|---|---|---|---|---|---|---|---|
| 1 | 06/30 | 24:00 | 76 | 63 | 66 | 30.01 | 350 | 2 | 0.00 |
| 2 | 06/29 | 23:00 | 76 | 65 | 71 | 29.96 | 310 | 1 | 0.00 |
| 3 | 06/29 | 22:00 | 77 | 65 | 67 | 29.92 | 310 | 0 | 0.00 |
| 4 | 06/29 | 21:00 | 80 | 66 | 64 | 29.85 | 310 | 0 | 0.00 |
| 5 | 06/29 | 20:00 | 82 | 66 | 60 | 29.84 | 330 | 4 | 0.00 |
| 6 | 06/29 | 19:00 | 85 | 68 | 58 | 29.83 | 300 | 2 | 0.00 |
| 7 | 06/29 | 18:00 | 87 | 67 | 53 | 29.82 | 270 | 9 | 0.00 |
| 8 | 06/29 | 17:00 | 88 | 69 | 54 | 29.79 | 270 | 2 | 0.00 |
| 9 | 06/29 | 16:00 | 87 | 68 | 55 | 29.77 | 250 | 2 | 0.00 |
| 10 | 06/29 | 15:00 | 90 | 70 | 54 | 29.77 | 90 | 4 | 0.00 |
| 11 | 06/29 | 14:00 | 88 | 70 | 57 | 29.76 | 230 | 7 | 0.00 |
| 12 | 06/29 | 13:00 | 87 | 70 | 59 | 29.75 | 330 | 6 | 0.00 |
| 13 | 06/29 | 12:00 | 86 | 71 | 62 | 29.75 | 270 | 10 | 0.00 |
| 14 | 06/29 | 11:00 | 83 | 72 | 71 | 29.75 | 210 | 4 | 0.00 |
| 15 | 06/29 | 10:00 | 81 | 73 | 79 | 29.74 | 230 | 4 | 0.00 |
| 16 | 06/29 | 09:00 | 78 | 72 | 83 | 29.74 | 140 | 0 | 0.00 |
| 17 | 06/29 | 08:00 | 76 | 72 | 88 | 29.75 | 130 | 2 | 0.00 |
| 18 | 06/29 | 07:00 | 74 | 70 | 90 | 29.80 | 180 | 0 | 0.00 |
| 19 | 06/29 | 06:00 | 74 | 70 | 89 | 29.81 | 180 | 0 | 0.00 |
| 20 | 06/29 | 05:00 | 74 | 69 | 87 | 29.81 | 180 | 0 | 0.00 |
| 21 | 06/29 | 04:00 | 74 | 69 | 86 | 29.82 | 180 | 1 | 0.00 |
| 22 | 06/29 | 03:00 | 75 | 69 | 83 | 29.84 | 180 | 0 | 0.00 |
| 23 | 06/29 | 02:00 | 76 | 70 | 83 | 29.85 | 180 | 1 | 0.00 |
| 24 | 06/29 | 01:00 | 77 | 71 | 82 | 29.86 | 130 | 0 | 0.00 |